sensor_id;sensor_type;location;lat;lon;timestamp;P1;durP1;ratioP1;P2;durP2;ratioP2
37051;SDS011;22964;52.272;13.356;2023-09-07T00:00:35;5.22;;;3.55;;
37051;SDS011;22964;52.272;13.356;2023-09-07T00:03:01;4.50;;;3.22;;
37051;SDS011;22964;52.272;13.356;2023-09-07T00:05:27;5.68;;;3.25;;
37051;SDS011;22964;52.272;13.356;2023-09-07T00:07:53;4.22;;;3.28;;
37051;SDS011;22964;52.272;13.356;2023-09-07T00:10:18;5.05;;;3.15;;
37051;SDS011;22964;52.272;13.356;2023-09-07T00:12:44;4.05;;;3.25;;
37051;SDS011;22964;52.272;13.356;2023-09-07T00:15:11;4.85;;;3.42;;
37051;SDS011;22964;52.272;13.356;2023-09-07T00:17:37;4.32;;;3.30;;
37051;SDS011;22964;52.272;13.356;2023-09-07T00:20:03;5.32;;;3.17;;
37051;SDS011;22964;52.272;13.356;2023-09-07T00:22:36;4.28;;;3.20;;
37051;SDS011;22964;52.272;13.356;2023-09-07T00:25:02;5.30;;;2.95;;
37051;SDS011;22964;52.272;13.356;2023-09-07T00:27:29;4.63;;;2.95;;
37051;SDS011;22964;52.272;13.356;2023-09-07T00:29:55;5.38;;;3.60;;
37051;SDS011;22964;52.272;13.356;2023-09-07T00:32:21;5.10;;;3.22;;
37051;SDS011;22964;52.272;13.356;2023-09-07T00:34:46;6.35;;;3.28;;
37051;SDS011;22964;52.272;13.356;2023-09-07T00:37:12;4.22;;;3.45;;
37051;SDS011;22964;52.272;13.356;2023-09-07T00:39:38;5.68;;;3.35;;
37051;SDS011;22964;52.272;13.356;2023-09-07T00:42:03;4.72;;;2.90;;
37051;SDS011;22964;52.272;13.356;2023-09-07T00:44:29;5.15;;;3.20;;
37051;SDS011;22964;52.272;13.356;2023-09-07T00:46:58;4.38;;;3.55;;
37051;SDS011;22964;52.272;13.356;2023-09-07T00:49:24;4.95;;;3.45;;
37051;SDS011;22964;52.272;13.356;2023-09-07T00:51:51;4.82;;;3.40;;
37051;SDS011;22964;52.272;13.356;2023-09-07T00:54:18;4.43;;;3.22;;
37051;SDS011;22964;52.272;13.356;2023-09-07T00:56:44;8.45;;;4.05;;
37051;SDS011;22964;52.272;13.356;2023-09-07T00:59:11;4.32;;;3.30;;
37051;SDS011;22964;52.272;13.356;2023-09-07T01:01:38;4.25;;;3.22;;
37051;SDS011;22964;52.272;13.356;2023-09-07T01:04:04;4.22;;;3.10;;
37051;SDS011;22964;52.272;13.356;2023-09-07T01:06:30;4.60;;;3.33;;
37051;SDS011;22964;52.272;13.356;2023-09-07T01:09:02;4.65;;;3.25;;
37051;SDS011;22964;52.272;13.356;2023-09-07T01:11:36;4.55;;;3.40;;
37051;SDS011;22964;52.272;13.356;2023-09-07T01:14:02;6.80;;;3.35;;
37051;SDS011;22964;52.272;13.356;2023-09-07T01:16:29;5.03;;;3.45;;
37051;SDS011;22964;52.272;13.356;2023-09-07T01:18:56;4.65;;;3.42;;
37051;SDS011;22964;52.272;13.356;2023-09-07T01:21:22;4.50;;;3.25;;
37051;SDS011;22964;52.272;13.356;2023-09-07T01:23:49;5.10;;;3.38;;
37051;SDS011;22964;52.272;13.356;2023-09-07T01:26:16;5.35;;;3.58;;
37051;SDS011;22964;52.272;13.356;2023-09-07T01:28:42;4.43;;;3.30;;
37051;SDS011;22964;52.272;13.356;2023-09-07T01:31:08;5.47;;;3.75;;
37051;SDS011;22964;52.272;13.356;2023-09-07T01:33:34;4.47;;;3.42;;
37051;SDS011;22964;52.272;13.356;2023-09-07T01:36:00;5.20;;;3.70;;
37051;SDS011;22964;52.272;13.356;2023-09-07T01:38:26;4.82;;;3.50;;
37051;SDS011;22964;52.272;13.356;2023-09-07T01:40:52;4.80;;;3.47;;
37051;SDS011;22964;52.272;13.356;2023-09-07T01:43:17;5.47;;;3.80;;
37051;SDS011;22964;52.272;13.356;2023-09-07T01:45:45;4.55;;;3.55;;
37051;SDS011;22964;52.272;13.356;2023-09-07T01:48:11;4.88;;;3.53;;
37051;SDS011;22964;52.272;13.356;2023-09-07T01:50:38;5.07;;;3.58;;
37051;SDS011;22964;52.272;13.356;2023-09-07T01:53:04;5.10;;;3.60;;
37051;SDS011;22964;52.272;13.356;2023-09-07T01:55:31;6.65;;;4.03;;
37051;SDS011;22964;52.272;13.356;2023-09-07T01:57:58;6.93;;;4.05;;
37051;SDS011;22964;52.272;13.356;2023-09-07T02:00:24;5.50;;;3.70;;
37051;SDS011;22964;52.272;13.356;2023-09-07T02:02:50;6.10;;;3.83;;
37051;SDS011;22964;52.272;13.356;2023-09-07T02:05:16;5.65;;;4.00;;
37051;SDS011;22964;52.272;13.356;2023-09-07T02:07:42;5.72;;;4.10;;
37051;SDS011;22964;52.272;13.356;2023-09-07T02:10:08;6.85;;;3.83;;
37051;SDS011;22964;52.272;13.356;2023-09-07T02:12:34;6.00;;;4.10;;
37051;SDS011;22964;52.272;13.356;2023-09-07T02:15:01;5.32;;;3.90;;
37051;SDS011;22964;52.272;13.356;2023-09-07T02:17:28;6.25;;;4.15;;
37051;SDS011;22964;52.272;13.356;2023-09-07T02:19:55;6.35;;;3.90;;
37051;SDS011;22964;52.272;13.356;2023-09-07T02:22:21;4.88;;;3.85;;
37051;SDS011;22964;52.272;13.356;2023-09-07T02:24:47;5.43;;;3.90;;
37051;SDS011;22964;52.272;13.356;2023-09-07T02:27:13;5.82;;;4.10;;
37051;SDS011;22964;52.272;13.356;2023-09-07T02:29:38;5.07;;;4.15;;
37051;SDS011;22964;52.272;13.356;2023-09-07T02:32:04;6.97;;;4.32;;
37051;SDS011;22964;52.272;13.356;2023-09-07T02:34:30;6.00;;;4.32;;
37051;SDS011;22964;52.272;13.356;2023-09-07T02:36:56;6.93;;;4.40;;
37051;SDS011;22964;52.272;13.356;2023-09-07T02:39:23;6.50;;;4.45;;
37051;SDS011;22964;52.272;13.356;2023-09-07T02:41:52;6.43;;;4.25;;
37051;SDS011;22964;52.272;13.356;2023-09-07T02:44:18;7.05;;;4.20;;
37051;SDS011;22964;52.272;13.356;2023-09-07T02:46:43;6.40;;;4.40;;
37051;SDS011;22964;52.272;13.356;2023-09-07T02:49:09;6.38;;;4.50;;
37051;SDS011;22964;52.272;13.356;2023-09-07T02:51:35;6.20;;;4.13;;
37051;SDS011;22964;52.272;13.356;2023-09-07T02:54:02;6.53;;;4.43;;
37051;SDS011;22964;52.272;13.356;2023-09-07T02:56:31;6.55;;;4.18;;
37051;SDS011;22964;52.272;13.356;2023-09-07T02:58:57;5.88;;;4.35;;
37051;SDS011;22964;52.272;13.356;2023-09-07T03:01:22;6.50;;;4.10;;
37051;SDS011;22964;52.272;13.356;2023-09-07T03:03:49;6.43;;;4.40;;
37051;SDS011;22964;52.272;13.356;2023-09-07T03:06:16;5.97;;;4.30;;
37051;SDS011;22964;52.272;13.356;2023-09-07T03:08:44;5.30;;;4.22;;
37051;SDS011;22964;52.272;13.356;2023-09-07T03:11:10;5.88;;;3.95;;
37051;SDS011;22964;52.272;13.356;2023-09-07T03:13:37;6.57;;;4.03;;
37051;SDS011;22964;52.272;13.356;2023-09-07T03:16:04;7.05;;;4.30;;
37051;SDS011;22964;52.272;13.356;2023-09-07T03:18:30;8.50;;;5.15;;
37051;SDS011;22964;52.272;13.356;2023-09-07T03:20:58;5.78;;;4.43;;
37051;SDS011;22964;52.272;13.356;2023-09-07T03:23:29;6.43;;;4.38;;
37051;SDS011;22964;52.272;13.356;2023-09-07T03:25:57;7.57;;;4.13;;
37051;SDS011;22964;52.272;13.356;2023-09-07T03:28:23;6.68;;;4.53;;
37051;SDS011;22964;52.272;13.356;2023-09-07T03:30:54;6.15;;;4.28;;
37051;SDS011;22964;52.272;13.356;2023-09-07T03:33:20;7.05;;;4.47;;
37051;SDS011;22964;52.272;13.356;2023-09-07T03:35:46;6.13;;;4.43;;
37051;SDS011;22964;52.272;13.356;2023-09-07T03:38:12;5.75;;;4.30;;
37051;SDS011;22964;52.272;13.356;2023-09-07T03:40:39;7.68;;;4.50;;
37051;SDS011;22964;52.272;13.356;2023-09-07T03:43:04;8.10;;;4.47;;
37051;SDS011;22964;52.272;13.356;2023-09-07T03:45:30;7.32;;;4.88;;
37051;SDS011;22964;52.272;13.356;2023-09-07T03:47:56;5.35;;;4.43;;
37051;SDS011;22964;52.272;13.356;2023-09-07T03:50:22;8.57;;;4.95;;
37051;SDS011;22964;52.272;13.356;2023-09-07T03:52:48;7.28;;;4.57;;
37051;SDS011;22964;52.272;13.356;2023-09-07T03:55:14;8.32;;;5.18;;
37051;SDS011;22964;52.272;13.356;2023-09-07T03:57:40;6.15;;;4.38;;
37051;SDS011;22964;52.272;13.356;2023-09-07T04:00:06;8.18;;;4.95;;
37051;SDS011;22964;52.272;13.356;2023-09-07T04:05:04;8.55;;;4.68;;
37051;SDS011;22964;52.272;13.356;2023-09-07T04:07:31;6.88;;;4.72;;
37051;SDS011;22964;52.272;13.356;2023-09-07T04:09:58;6.90;;;5.00;;
37051;SDS011;22964;52.272;13.356;2023-09-07T04:12:24;7.10;;;5.05;;
37051;SDS011;22964;52.272;13.356;2023-09-07T04:14:49;6.57;;;4.82;;
37051;SDS011;22964;52.272;13.356;2023-09-07T04:17:16;6.72;;;4.88;;
37051;SDS011;22964;52.272;13.356;2023-09-07T04:19:41;13.75;;;5.20;;
37051;SDS011;22964;52.272;13.356;2023-09-07T04:22:08;7.15;;;4.93;;
37051;SDS011;22964;52.272;13.356;2023-09-07T04:24:35;11.50;;;4.97;;
37051;SDS011;22964;52.272;13.356;2023-09-07T04:27:02;6.85;;;5.05;;
37051;SDS011;22964;52.272;13.356;2023-09-07T04:29:30;7.35;;;4.82;;
37051;SDS011;22964;52.272;13.356;2023-09-07T04:31:56;6.22;;;4.88;;
37051;SDS011;22964;52.272;13.356;2023-09-07T04:34:23;8.38;;;5.00;;
37051;SDS011;22964;52.272;13.356;2023-09-07T04:36:50;9.10;;;5.28;;
37051;SDS011;22964;52.272;13.356;2023-09-07T04:39:15;8.35;;;4.95;;
37051;SDS011;22964;52.272;13.356;2023-09-07T04:41:41;6.80;;;5.07;;
37051;SDS011;22964;52.272;13.356;2023-09-07T04:44:07;6.90;;;4.43;;
37051;SDS011;22964;52.272;13.356;2023-09-07T04:46:33;7.57;;;4.88;;
37051;SDS011;22964;52.272;13.356;2023-09-07T04:48:59;7.88;;;4.88;;
37051;SDS011;22964;52.272;13.356;2023-09-07T04:51:25;12.43;;;5.28;;
37051;SDS011;22964;52.272;13.356;2023-09-07T04:53:51;8.32;;;4.97;;
37051;SDS011;22964;52.272;13.356;2023-09-07T04:56:17;7.35;;;5.28;;
37051;SDS011;22964;52.272;13.356;2023-09-07T04:58:43;7.95;;;5.07;;
37051;SDS011;22964;52.272;13.356;2023-09-07T05:01:09;8.25;;;5.30;;
37051;SDS011;22964;52.272;13.356;2023-09-07T05:03:37;6.95;;;5.38;;
37051;SDS011;22964;52.272;13.356;2023-09-07T05:06:06;7.85;;;5.43;;
37051;SDS011;22964;52.272;13.356;2023-09-07T05:08:32;6.38;;;4.93;;
37051;SDS011;22964;52.272;13.356;2023-09-07T05:10:59;7.35;;;5.32;;
37051;SDS011;22964;52.272;13.356;2023-09-07T05:13:26;6.80;;;5.03;;
37051;SDS011;22964;52.272;13.356;2023-09-07T05:15:55;7.10;;;4.95;;
37051;SDS011;22964;52.272;13.356;2023-09-07T05:18:21;7.95;;;5.05;;
37051;SDS011;22964;52.272;13.356;2023-09-07T05:20:48;9.20;;;5.30;;
37051;SDS011;22964;52.272;13.356;2023-09-07T05:23:15;6.20;;;5.00;;
37051;SDS011;22964;52.272;13.356;2023-09-07T05:25:43;6.75;;;4.78;;
37051;SDS011;22964;52.272;13.356;2023-09-07T05:28:11;8.38;;;5.03;;
37051;SDS011;22964;52.272;13.356;2023-09-07T05:30:39;9.32;;;5.22;;
37051;SDS011;22964;52.272;13.356;2023-09-07T05:33:05;8.50;;;5.20;;
37051;SDS011;22964;52.272;13.356;2023-09-07T05:35:30;7.20;;;5.03;;
37051;SDS011;22964;52.272;13.356;2023-09-07T05:37:58;7.93;;;4.88;;
37051;SDS011;22964;52.272;13.356;2023-09-07T05:40:24;8.27;;;5.22;;
37051;SDS011;22964;52.272;13.356;2023-09-07T05:42:50;7.72;;;5.07;;
37051;SDS011;22964;52.272;13.356;2023-09-07T05:45:16;7.20;;;5.03;;
37051;SDS011;22964;52.272;13.356;2023-09-07T05:47:42;6.55;;;4.78;;
37051;SDS011;22964;52.272;13.356;2023-09-07T05:50:08;6.85;;;4.70;;
37051;SDS011;22964;52.272;13.356;2023-09-07T05:52:34;6.78;;;4.63;;
37051;SDS011;22964;52.272;13.356;2023-09-07T05:55:00;7.10;;;5.03;;
37051;SDS011;22964;52.272;13.356;2023-09-07T05:57:25;7.47;;;4.70;;
37051;SDS011;22964;52.272;13.356;2023-09-07T05:59:51;6.93;;;4.68;;
37051;SDS011;22964;52.272;13.356;2023-09-07T06:02:17;6.18;;;4.30;;
37051;SDS011;22964;52.272;13.356;2023-09-07T06:04:43;6.95;;;4.90;;
37051;SDS011;22964;52.272;13.356;2023-09-07T06:07:09;10.23;;;4.70;;
37051;SDS011;22964;52.272;13.356;2023-09-07T06:09:35;8.23;;;4.70;;
37051;SDS011;22964;52.272;13.356;2023-09-07T06:12:02;7.13;;;4.80;;
37051;SDS011;22964;52.272;13.356;2023-09-07T06:14:28;5.85;;;4.47;;
37051;SDS011;22964;52.272;13.356;2023-09-07T06:16:54;7.65;;;4.68;;
37051;SDS011;22964;52.272;13.356;2023-09-07T06:19:21;6.80;;;4.30;;
37051;SDS011;22964;52.272;13.356;2023-09-07T06:21:47;7.38;;;5.05;;
37051;SDS011;22964;52.272;13.356;2023-09-07T06:24:12;6.85;;;4.88;;
37051;SDS011;22964;52.272;13.356;2023-09-07T06:26:40;7.15;;;5.03;;
37051;SDS011;22964;52.272;13.356;2023-09-07T06:29:05;7.00;;;4.47;;
37051;SDS011;22964;52.272;13.356;2023-09-07T06:31:31;7.25;;;5.13;;
37051;SDS011;22964;52.272;13.356;2023-09-07T06:33:57;9.60;;;4.70;;
37051;SDS011;22964;52.272;13.356;2023-09-07T06:36:23;9.52;;;4.43;;
37051;SDS011;22964;52.272;13.356;2023-09-07T06:38:49;6.88;;;4.75;;
37051;SDS011;22964;52.272;13.356;2023-09-07T06:41:15;6.45;;;4.57;;
37051;SDS011;22964;52.272;13.356;2023-09-07T06:43:41;9.20;;;4.80;;
37051;SDS011;22964;52.272;13.356;2023-09-07T06:46:08;6.57;;;4.55;;
37051;SDS011;22964;52.272;13.356;2023-09-07T06:48:35;7.38;;;5.10;;
37051;SDS011;22964;52.272;13.356;2023-09-07T06:51:01;8.02;;;5.05;;
37051;SDS011;22964;52.272;13.356;2023-09-07T06:53:32;7.97;;;5.33;;
37051;SDS011;22964;52.272;13.356;2023-09-07T06:55:58;7.50;;;5.00;;
37051;SDS011;22964;52.272;13.356;2023-09-07T06:58:25;6.70;;;4.45;;
37051;SDS011;22964;52.272;13.356;2023-09-07T07:00:51;8.60;;;4.35;;
37051;SDS011;22964;52.272;13.356;2023-09-07T07:03:17;6.95;;;5.05;;
37051;SDS011;22964;52.272;13.356;2023-09-07T07:05:43;6.93;;;4.47;;
37051;SDS011;22964;52.272;13.356;2023-09-07T07:08:09;6.35;;;4.53;;
37051;SDS011;22964;52.272;13.356;2023-09-07T07:10:35;6.47;;;4.50;;
37051;SDS011;22964;52.272;13.356;2023-09-07T07:13:01;6.07;;;4.43;;
37051;SDS011;22964;52.272;13.356;2023-09-07T07:15:27;6.20;;;4.68;;
37051;SDS011;22964;52.272;13.356;2023-09-07T07:17:53;6.80;;;4.50;;
37051;SDS011;22964;52.272;13.356;2023-09-07T07:22:48;10.52;;;4.68;;
37051;SDS011;22964;52.272;13.356;2023-09-07T07:25:16;9.15;;;4.15;;
37051;SDS011;22964;52.272;13.356;2023-09-07T07:27:42;5.38;;;3.95;;
37051;SDS011;22964;52.272;13.356;2023-09-07T07:30:08;7.40;;;4.07;;
37051;SDS011;22964;52.272;13.356;2023-09-07T07:32:35;9.27;;;3.83;;
37051;SDS011;22964;52.272;13.356;2023-09-07T07:35:00;6.35;;;4.07;;
37051;SDS011;22964;52.272;13.356;2023-09-07T07:37:27;6.93;;;3.95;;
37051;SDS011;22964;52.272;13.356;2023-09-07T07:39:53;6.22;;;3.85;;
37051;SDS011;22964;52.272;13.356;2023-09-07T07:42:18;9.85;;;3.70;;
37051;SDS011;22964;52.272;13.356;2023-09-07T07:44:46;5.40;;;3.60;;
37051;SDS011;22964;52.272;13.356;2023-09-07T07:47:11;11.40;;;4.00;;
37051;SDS011;22964;52.272;13.356;2023-09-07T07:49:43;5.05;;;3.50;;
37051;SDS011;22964;52.272;13.356;2023-09-07T07:52:12;7.82;;;3.78;;
37051;SDS011;22964;52.272;13.356;2023-09-07T07:54:38;5.00;;;3.45;;
37051;SDS011;22964;52.272;13.356;2023-09-07T07:57:05;5.05;;;3.35;;
37051;SDS011;22964;52.272;13.356;2023-09-07T07:59:34;5.20;;;3.63;;
37051;SDS011;22964;52.272;13.356;2023-09-07T08:02:03;7.63;;;3.53;;
37051;SDS011;22964;52.272;13.356;2023-09-07T08:04:31;6.47;;;3.63;;
37051;SDS011;22964;52.272;13.356;2023-09-07T08:06:58;6.15;;;3.45;;
37051;SDS011;22964;52.272;13.356;2023-09-07T08:09:29;5.67;;;3.10;;
37051;SDS011;22964;52.272;13.356;2023-09-07T08:11:56;4.47;;;3.38;;
37051;SDS011;22964;52.272;13.356;2023-09-07T08:14:23;5.53;;;3.50;;
37051;SDS011;22964;52.272;13.356;2023-09-07T08:16:50;4.90;;;3.40;;
37051;SDS011;22964;52.272;13.356;2023-09-07T08:19:16;4.93;;;3.20;;
37051;SDS011;22964;52.272;13.356;2023-09-07T08:21:42;4.35;;;3.13;;
37051;SDS011;22964;52.272;13.356;2023-09-07T08:24:08;4.43;;;2.92;;
37051;SDS011;22964;52.272;13.356;2023-09-07T08:26:37;4.32;;;2.92;;
37051;SDS011;22964;52.272;13.356;2023-09-07T08:29:03;7.25;;;3.28;;
37051;SDS011;22964;52.272;13.356;2023-09-07T08:31:33;4.72;;;3.05;;
37051;SDS011;22964;52.272;13.356;2023-09-07T08:34:02;12.88;;;3.58;;
37051;SDS011;22964;52.272;13.356;2023-09-07T08:36:29;5.07;;;2.92;;
37051;SDS011;22964;52.272;13.356;2023-09-07T08:38:59;6.65;;;3.05;;
37051;SDS011;22964;52.272;13.356;2023-09-07T08:41:30;5.32;;;2.72;;
37051;SDS011;22964;52.272;13.356;2023-09-07T08:44:02;6.03;;;2.95;;
37051;SDS011;22964;52.272;13.356;2023-09-07T08:46:31;7.97;;;3.40;;
37051;SDS011;22964;52.272;13.356;2023-09-07T08:48:59;3.80;;;2.70;;
37051;SDS011;22964;52.272;13.356;2023-09-07T08:51:26;4.07;;;3.03;;
37051;SDS011;22964;52.272;13.356;2023-09-07T08:53:57;4.68;;;3.10;;
37051;SDS011;22964;52.272;13.356;2023-09-07T08:56:23;4.63;;;3.00;;
37051;SDS011;22964;52.272;13.356;2023-09-07T08:58:49;4.97;;;3.10;;
37051;SDS011;22964;52.272;13.356;2023-09-07T09:01:16;5.57;;;3.10;;
37051;SDS011;22964;52.272;13.356;2023-09-07T09:03:42;6.75;;;3.58;;
37051;SDS011;22964;52.272;13.356;2023-09-07T09:06:08;4.00;;;2.92;;
37051;SDS011;22964;52.272;13.356;2023-09-07T09:08:41;4.70;;;3.03;;
37051;SDS011;22964;52.272;13.356;2023-09-07T09:11:10;4.13;;;3.08;;
37051;SDS011;22964;52.272;13.356;2023-09-07T09:13:36;5.28;;;3.13;;
37051;SDS011;22964;52.272;13.356;2023-09-07T09:16:04;10.18;;;2.85;;
37051;SDS011;22964;52.272;13.356;2023-09-07T09:18:30;6.82;;;2.95;;
37051;SDS011;22964;52.272;13.356;2023-09-07T09:20:55;10.90;;;3.70;;
37051;SDS011;22964;52.272;13.356;2023-09-07T09:23:24;9.15;;;3.35;;
37051;SDS011;22964;52.272;13.356;2023-09-07T09:28:21;4.22;;;2.92;;
37051;SDS011;22964;52.272;13.356;2023-09-07T09:30:47;6.20;;;3.17;;
37051;SDS011;22964;52.272;13.356;2023-09-07T09:33:14;4.30;;;3.08;;
37051;SDS011;22964;52.272;13.356;2023-09-07T09:35:40;6.18;;;3.30;;
37051;SDS011;22964;52.272;13.356;2023-09-07T09:38:08;3.47;;;2.85;;
37051;SDS011;22964;52.272;13.356;2023-09-07T09:40:35;6.03;;;3.20;;
37051;SDS011;22964;52.272;13.356;2023-09-07T09:43:02;6.40;;;3.03;;
37051;SDS011;22964;52.272;13.356;2023-09-07T09:45:28;4.10;;;2.75;;
37051;SDS011;22964;52.272;13.356;2023-09-07T09:47:54;4.47;;;3.08;;
37051;SDS011;22964;52.272;13.356;2023-09-07T09:50:26;5.85;;;2.67;;
37051;SDS011;22964;52.272;13.356;2023-09-07T09:52:52;6.38;;;3.00;;
37051;SDS011;22964;52.272;13.356;2023-09-07T09:55:18;4.32;;;2.70;;
37051;SDS011;22964;52.272;13.356;2023-09-07T09:57:44;4.13;;;2.60;;
37051;SDS011;22964;52.272;13.356;2023-09-07T10:00:11;3.53;;;2.78;;
37051;SDS011;22964;52.272;13.356;2023-09-07T10:05:31;6.28;;;2.80;;
37051;SDS011;22964;52.272;13.356;2023-09-07T10:08:03;5.53;;;2.88;;
37051;SDS011;22964;52.272;13.356;2023-09-07T10:10:33;4.15;;;2.60;;
37051;SDS011;22964;52.272;13.356;2023-09-07T10:13:02;3.80;;;2.63;;
37051;SDS011;22964;52.272;13.356;2023-09-07T10:15:29;3.42;;;2.40;;
37051;SDS011;22964;52.272;13.356;2023-09-07T10:18:32;4.60;;;2.72;;
37051;SDS011;22964;52.272;13.356;2023-09-07T10:20:58;6.90;;;2.90;;
37051;SDS011;22964;52.272;13.356;2023-09-07T10:23:42;14.25;;;3.20;;
37051;SDS011;22964;52.272;13.356;2023-09-07T10:26:13;10.88;;;2.80;;
37051;SDS011;22964;52.272;13.356;2023-09-07T10:28:40;4.88;;;2.45;;
37051;SDS011;22964;52.272;13.356;2023-09-07T10:31:19;4.63;;;2.50;;
37051;SDS011;22964;52.272;13.356;2023-09-07T10:33:45;4.18;;;2.58;;
37051;SDS011;22964;52.272;13.356;2023-09-07T10:36:21;3.38;;;2.20;;
37051;SDS011;22964;52.272;13.356;2023-09-07T10:38:48;3.08;;;2.33;;
37051;SDS011;22964;52.272;13.356;2023-09-07T10:41:14;4.22;;;2.40;;
37051;SDS011;22964;52.272;13.356;2023-09-07T10:43:47;5.35;;;2.67;;
37051;SDS011;22964;52.272;13.356;2023-09-07T10:46:20;3.35;;;2.35;;
37051;SDS011;22964;52.272;13.356;2023-09-07T10:48:51;4.30;;;2.20;;
37051;SDS011;22964;52.272;13.356;2023-09-07T10:51:18;4.47;;;2.45;;
37051;SDS011;22964;52.272;13.356;2023-09-07T10:53:44;4.93;;;2.33;;
37051;SDS011;22964;52.272;13.356;2023-09-07T10:56:10;5.72;;;2.40;;
37051;SDS011;22964;52.272;13.356;2023-09-07T10:58:36;5.05;;;2.42;;
37051;SDS011;22964;52.272;13.356;2023-09-07T11:01:07;5.65;;;2.50;;
37051;SDS011;22964;52.272;13.356;2023-09-07T11:03:36;14.60;;;2.90;;
37051;SDS011;22964;52.272;13.356;2023-09-07T11:06:04;3.55;;;2.30;;
37051;SDS011;22964;52.272;13.356;2023-09-07T11:08:37;3.03;;;1.98;;
37051;SDS011;22964;52.272;13.356;2023-09-07T11:11:03;5.25;;;2.40;;
37051;SDS011;22964;52.272;13.356;2023-09-07T11:13:29;6.25;;;2.45;;
37051;SDS011;22964;52.272;13.356;2023-09-07T11:15:55;3.10;;;2.30;;
37051;SDS011;22964;52.272;13.356;2023-09-07T11:18:23;3.65;;;2.05;;
37051;SDS011;22964;52.272;13.356;2023-09-07T11:20:50;3.20;;;2.20;;
37051;SDS011;22964;52.272;13.356;2023-09-07T11:23:17;3.80;;;2.50;;
37051;SDS011;22964;52.272;13.356;2023-09-07T11:25:44;2.97;;;2.20;;
37051;SDS011;22964;52.272;13.356;2023-09-07T11:28:11;7.25;;;2.22;;
37051;SDS011;22964;52.272;13.356;2023-09-07T11:30:37;3.30;;;2.22;;
37051;SDS011;22964;52.272;13.356;2023-09-07T11:33:15;6.00;;;2.60;;
37051;SDS011;22964;52.272;13.356;2023-09-07T11:35:40;3.85;;;2.10;;
37051;SDS011;22964;52.272;13.356;2023-09-07T11:38:06;3.97;;;2.38;;
37051;SDS011;22964;52.272;13.356;2023-09-07T11:40:35;3.05;;;2.28;;
37051;SDS011;22964;52.272;13.356;2023-09-07T11:43:01;4.43;;;2.42;;
37051;SDS011;22964;52.272;13.356;2023-09-07T11:45:26;3.28;;;2.22;;
37051;SDS011;22964;52.272;13.356;2023-09-07T11:47:52;3.08;;;1.90;;
37051;SDS011;22964;52.272;13.356;2023-09-07T11:50:18;3.60;;;2.33;;
37051;SDS011;22964;52.272;13.356;2023-09-07T11:52:45;2.65;;;2.05;;
37051;SDS011;22964;52.272;13.356;2023-09-07T11:55:13;5.50;;;2.17;;
37051;SDS011;22964;52.272;13.356;2023-09-07T11:57:39;3.05;;;2.03;;
37051;SDS011;22964;52.272;13.356;2023-09-07T12:00:06;2.60;;;2.00;;
37051;SDS011;22964;52.272;13.356;2023-09-07T12:02:38;5.22;;;2.30;;
37051;SDS011;22964;52.272;13.356;2023-09-07T12:05:05;4.20;;;2.30;;
37051;SDS011;22964;52.272;13.356;2023-09-07T12:07:33;3.10;;;2.05;;
37051;SDS011;22964;52.272;13.356;2023-09-07T12:09:59;2.67;;;2.13;;
37051;SDS011;22964;52.272;13.356;2023-09-07T12:12:25;3.10;;;2.20;;
37051;SDS011;22964;52.272;13.356;2023-09-07T12:14:51;7.45;;;2.78;;
37051;SDS011;22964;52.272;13.356;2023-09-07T12:17:16;4.55;;;2.22;;
37051;SDS011;22964;52.272;13.356;2023-09-07T12:19:44;3.35;;;2.05;;
37051;SDS011;22964;52.272;13.356;2023-09-07T12:22:11;5.03;;;2.25;;
37051;SDS011;22964;52.272;13.356;2023-09-07T12:24:37;2.90;;;2.17;;
37051;SDS011;22964;52.272;13.356;2023-09-07T12:27:03;2.92;;;2.17;;
37051;SDS011;22964;52.272;13.356;2023-09-07T12:29:29;4.15;;;2.13;;
37051;SDS011;22964;52.272;13.356;2023-09-07T12:31:55;5.57;;;2.58;;
37051;SDS011;22964;52.272;13.356;2023-09-07T12:34:20;4.80;;;2.20;;
37051;SDS011;22964;52.272;13.356;2023-09-07T12:36:46;2.72;;;2.13;;
37051;SDS011;22964;52.272;13.356;2023-09-07T12:39:13;4.60;;;2.50;;
37051;SDS011;22964;52.272;13.356;2023-09-07T12:41:39;3.63;;;2.15;;
37051;SDS011;22964;52.272;13.356;2023-09-07T12:44:05;4.07;;;2.60;;
37051;SDS011;22964;52.272;13.356;2023-09-07T12:46:31;3.55;;;2.40;;
37051;SDS011;22964;52.272;13.356;2023-09-07T12:48:57;5.35;;;2.30;;
37051;SDS011;22964;52.272;13.356;2023-09-07T12:51:23;4.43;;;2.40;;
37051;SDS011;22964;52.272;13.356;2023-09-07T12:53:49;4.45;;;2.30;;
37051;SDS011;22964;52.272;13.356;2023-09-07T12:56:15;6.57;;;2.30;;
37051;SDS011;22964;52.272;13.356;2023-09-07T12:58:41;3.42;;;2.42;;
37051;SDS011;22964;52.272;13.356;2023-09-07T13:01:07;3.22;;;2.30;;
37051;SDS011;22964;52.272;13.356;2023-09-07T13:03:37;3.20;;;2.20;;
37051;SDS011;22964;52.272;13.356;2023-09-07T13:06:04;4.53;;;2.40;;
37051;SDS011;22964;52.272;13.356;2023-09-07T13:08:29;8.65;;;2.75;;
37051;SDS011;22964;52.272;13.356;2023-09-07T13:10:55;3.63;;;2.25;;
37051;SDS011;22964;52.272;13.356;2023-09-07T13:13:22;5.00;;;2.42;;
37051;SDS011;22964;52.272;13.356;2023-09-07T13:15:51;3.13;;;2.03;;
37051;SDS011;22964;52.272;13.356;2023-09-07T13:18:17;4.55;;;2.25;;
37051;SDS011;22964;52.272;13.356;2023-09-07T13:20:42;3.70;;;2.30;;
37051;SDS011;22964;52.272;13.356;2023-09-07T13:23:08;3.22;;;2.20;;
37051;SDS011;22964;52.272;13.356;2023-09-07T13:25:34;4.25;;;2.38;;
37051;SDS011;22964;52.272;13.356;2023-09-07T13:27:59;5.35;;;2.58;;
37051;SDS011;22964;52.272;13.356;2023-09-07T13:30:25;5.72;;;2.40;;
37051;SDS011;22964;52.272;13.356;2023-09-07T13:32:51;7.80;;;2.55;;
37051;SDS011;22964;52.272;13.356;2023-09-07T13:35:16;4.68;;;2.22;;
37051;SDS011;22964;52.272;13.356;2023-09-07T13:37:42;3.10;;;2.35;;
37051;SDS011;22964;52.272;13.356;2023-09-07T13:40:08;5.28;;;2.60;;
37051;SDS011;22964;52.272;13.356;2023-09-07T13:42:34;3.33;;;2.38;;
37051;SDS011;22964;52.272;13.356;2023-09-07T13:45:00;2.75;;;2.08;;
37051;SDS011;22964;52.272;13.356;2023-09-07T13:47:25;3.60;;;2.42;;
37051;SDS011;22964;52.272;13.356;2023-09-07T13:49:51;4.60;;;2.30;;
37051;SDS011;22964;52.272;13.356;2023-09-07T13:52:17;2.33;;;1.90;;
37051;SDS011;22964;52.272;13.356;2023-09-07T13:54:43;4.05;;;2.03;;
37051;SDS011;22964;52.272;13.356;2023-09-07T13:57:09;2.90;;;1.98;;
37051;SDS011;22964;52.272;13.356;2023-09-07T13:59:35;4.70;;;2.28;;
37051;SDS011;22964;52.272;13.356;2023-09-07T14:02:01;4.93;;;2.20;;
37051;SDS011;22964;52.272;13.356;2023-09-07T14:04:27;3.47;;;2.28;;
37051;SDS011;22964;52.272;13.356;2023-09-07T14:06:54;3.00;;;2.05;;
37051;SDS011;22964;52.272;13.356;2023-09-07T14:09:19;3.17;;;2.33;;
37051;SDS011;22964;52.272;13.356;2023-09-07T14:11:48;3.13;;;2.17;;
37051;SDS011;22964;52.272;13.356;2023-09-07T14:14:14;4.75;;;2.05;;
37051;SDS011;22964;52.272;13.356;2023-09-07T14:16:41;2.85;;;2.03;;
37051;SDS011;22964;52.272;13.356;2023-09-07T14:19:07;2.70;;;1.90;;
37051;SDS011;22964;52.272;13.356;2023-09-07T14:21:33;7.18;;;2.20;;
37051;SDS011;22964;52.272;13.356;2023-09-07T14:23:58;5.93;;;2.20;;
37051;SDS011;22964;52.272;13.356;2023-09-07T14:26:24;2.92;;;2.05;;
37051;SDS011;22964;52.272;13.356;2023-09-07T14:28:49;3.47;;;2.40;;
37051;SDS011;22964;52.272;13.356;2023-09-07T14:31:15;4.22;;;2.08;;
37051;SDS011;22964;52.272;13.356;2023-09-07T14:33:41;3.22;;;2.10;;
37051;SDS011;22964;52.272;13.356;2023-09-07T14:36:07;2.88;;;1.92;;
37051;SDS011;22964;52.272;13.356;2023-09-07T14:38:34;4.57;;;2.22;;
37051;SDS011;22964;52.272;13.356;2023-09-07T14:41:06;4.50;;;2.33;;